sensor_id;sensor_type;location;lat;lon;timestamp;P1;durP1;ratioP1;P2;durP2;ratioP2
50086;SDS011;35967;50.718;7.050;2022-11-03T00:02:56;11.27;;;1.57;;
50086;SDS011;35967;50.718;7.050;2022-11-03T00:12:59;17.50;;;2.00;;
50086;SDS011;35967;50.718;7.050;2022-11-03T00:23:03;10.40;;;1.40;;
50086;SDS011;35967;50.718;7.050;2022-11-03T00:33:07;10.90;;;1.40;;
50086;SDS011;35967;50.718;7.050;2022-11-03T00:43:11;16.97;;;1.70;;
50086;SDS011;35967;50.718;7.050;2022-11-03T00:53:15;15.73;;;2.00;;
50086;SDS011;35967;50.718;7.050;2022-11-03T01:03:20;15.70;;;2.10;;
50086;SDS011;35967;50.718;7.050;2022-11-03T01:13:23;14.07;;;1.87;;
50086;SDS011;35967;50.718;7.050;2022-11-03T01:23:27;12.17;;;2.70;;
50086;SDS011;35967;50.718;7.050;2022-11-03T01:33:30;18.23;;;2.60;;
50086;SDS011;35967;50.718;7.050;2022-11-03T01:43:36;13.20;;;2.63;;
50086;SDS011;35967;50.718;7.050;2022-11-03T01:53:40;16.37;;;1.70;;
50086;SDS011;35967;50.718;7.050;2022-11-03T02:03:48;9.47;;;1.67;;
50086;SDS011;35967;50.718;7.050;2022-11-03T02:13:55;13.18;;;1.65;;
50086;SDS011;35967;50.718;7.050;2022-11-03T02:24:01;8.37;;;1.60;;
50086;SDS011;35967;50.718;7.050;2022-11-03T02:34:14;14.80;;;1.73;;
50086;SDS011;35967;50.718;7.050;2022-11-03T02:44:21;16.93;;;1.97;;
50086;SDS011;35967;50.718;7.050;2022-11-03T02:54:28;16.23;;;2.23;;
50086;SDS011;35967;50.718;7.050;2022-11-03T03:04:35;12.27;;;2.00;;
50086;SDS011;35967;50.718;7.050;2022-11-03T03:14:43;8.50;;;1.23;;
50086;SDS011;35967;50.718;7.050;2022-11-03T03:24:49;13.40;;;1.87;;
50086;SDS011;35967;50.718;7.050;2022-11-03T03:34:58;10.43;;;1.50;;
50086;SDS011;35967;50.718;7.050;2022-11-03T03:45:04;12.83;;;1.40;;
50086;SDS011;35967;50.718;7.050;2022-11-03T03:55:13;9.27;;;1.37;;
50086;SDS011;35967;50.718;7.050;2022-11-03T04:05:19;10.90;;;0.97;;
50086;SDS011;35967;50.718;7.050;2022-11-03T04:15:23;11.27;;;1.37;;
50086;SDS011;35967;50.718;7.050;2022-11-03T04:25:46;8.83;;;1.47;;
50086;SDS011;35967;50.718;7.050;2022-11-03T04:35:53;9.00;;;1.40;;
50086;SDS011;35967;50.718;7.050;2022-11-03T04:45:59;13.97;;;1.57;;
50086;SDS011;35967;50.718;7.050;2022-11-03T04:56:10;8.93;;;1.37;;
50086;SDS011;35967;50.718;7.050;2022-11-03T05:06:17;15.67;;;1.97;;
50086;SDS011;35967;50.718;7.050;2022-11-03T05:16:23;11.83;;;1.57;;
50086;SDS011;35967;50.718;7.050;2022-11-03T05:26:27;16.47;;;1.67;;
50086;SDS011;35967;50.718;7.050;2022-11-03T05:36:35;11.03;;;1.53;;
50086;SDS011;35967;50.718;7.050;2022-11-03T05:46:39;11.40;;;1.43;;
50086;SDS011;35967;50.718;7.050;2022-11-03T05:56:44;14.93;;;1.63;;
50086;SDS011;35967;50.718;7.050;2022-11-03T06:06:48;15.30;;;1.80;;
50086;SDS011;35967;50.718;7.050;2022-11-03T06:16:56;7.23;;;1.20;;
50086;SDS011;35967;50.718;7.050;2022-11-03T06:27:01;12.60;;;1.70;;
50086;SDS011;35967;50.718;7.050;2022-11-03T06:37:12;12.47;;;1.70;;
50086;SDS011;35967;50.718;7.050;2022-11-03T06:47:21;11.97;;;1.90;;
50086;SDS011;35967;50.718;7.050;2022-11-03T06:57:26;12.03;;;1.50;;
50086;SDS011;35967;50.718;7.050;2022-11-03T07:07:34;19.53;;;2.53;;
50086;SDS011;35967;50.718;7.050;2022-11-03T07:17:38;10.87;;;1.70;;
50086;SDS011;35967;50.718;7.050;2022-11-03T07:27:41;8.83;;;1.90;;
50086;SDS011;35967;50.718;7.050;2022-11-03T07:37:46;13.60;;;2.10;;
50086;SDS011;35967;50.718;7.050;2022-11-03T07:47:51;13.17;;;1.40;;
50086;SDS011;35967;50.718;7.050;2022-11-03T07:57:56;9.87;;;1.33;;
50086;SDS011;35967;50.718;7.050;2022-11-03T08:08:00;11.00;;;1.30;;
50086;SDS011;35967;50.718;7.050;2022-11-03T08:18:04;7.47;;;1.27;;
50086;SDS011;35967;50.718;7.050;2022-11-03T08:28:07;13.93;;;1.50;;
50086;SDS011;35967;50.718;7.050;2022-11-03T08:38:13;8.03;;;1.60;;
50086;SDS011;35967;50.718;7.050;2022-11-03T08:48:16;12.37;;;1.60;;
50086;SDS011;35967;50.718;7.050;2022-11-03T08:58:20;9.30;;;1.20;;
50086;SDS011;35967;50.718;7.050;2022-11-03T09:08:24;10.33;;;2.10;;
50086;SDS011;35967;50.718;7.050;2022-11-03T09:18:48;9.53;;;2.40;;
50086;SDS011;35967;50.718;7.050;2022-11-03T09:28:51;11.10;;;1.60;;
50086;SDS011;35967;50.718;7.050;2022-11-03T09:38:55;7.53;;;1.20;;
50086;SDS011;35967;50.718;7.050;2022-11-03T09:48:59;11.73;;;1.27;;
50086;SDS011;35967;50.718;7.050;2022-11-03T09:59:10;11.30;;;1.37;;
50086;SDS011;35967;50.718;7.050;2022-11-03T10:09:16;11.37;;;2.10;;
50086;SDS011;35967;50.718;7.050;2022-11-03T10:19:23;9.83;;;1.53;;
50086;SDS011;35967;50.718;7.050;2022-11-03T10:29:27;12.80;;;1.00;;
50086;SDS011;35967;50.718;7.050;2022-11-03T10:39:34;9.33;;;1.53;;
50086;SDS011;35967;50.718;7.050;2022-11-03T10:49:37;10.87;;;1.30;;
50086;SDS011;35967;50.718;7.050;2022-11-03T10:59:46;11.67;;;1.70;;
50086;SDS011;35967;50.718;7.050;2022-11-03T11:09:51;12.60;;;1.40;;
50086;SDS011;35967;50.718;7.050;2022-11-03T11:41:05;9.77;;;1.23;;
50086;SDS011;35967;50.718;7.050;2022-11-03T11:51:09;6.30;;;1.30;;
50086;SDS011;35967;50.718;7.050;2022-11-03T12:01:20;7.83;;;1.50;;
50086;SDS011;35967;50.718;7.050;2022-11-03T12:11:39;9.57;;;1.73;;
50086;SDS011;35967;50.718;7.050;2022-11-03T12:21:48;7.73;;;1.67;;
50086;SDS011;35967;50.718;7.050;2022-11-03T12:31:52;8.47;;;1.43;;
50086;SDS011;35967;50.718;7.050;2022-11-03T12:41:56;7.20;;;1.97;;
50086;SDS011;35967;50.718;7.050;2022-11-03T12:51:59;5.57;;;1.20;;
50086;SDS011;35967;50.718;7.050;2022-11-03T13:02:10;9.90;;;1.53;;
50086;SDS011;35967;50.718;7.050;2022-11-03T13:12:13;6.17;;;1.10;;
50086;SDS011;35967;50.718;7.050;2022-11-03T13:22:38;6.03;;;1.17;;
50086;SDS011;35967;50.718;7.050;2022-11-03T13:32:42;6.40;;;1.57;;
50086;SDS011;35967;50.718;7.050;2022-11-03T13:42:47;9.67;;;1.40;;
50086;SDS011;35967;50.718;7.050;2022-11-03T13:52:49;7.90;;;2.10;;
50086;SDS011;35967;50.718;7.050;2022-11-03T14:02:54;6.63;;;1.60;;
50086;SDS011;35967;50.718;7.050;2022-11-03T14:13:17;10.77;;;1.80;;
50086;SDS011;35967;50.718;7.050;2022-11-03T14:23:21;12.60;;;2.10;;
50086;SDS011;35967;50.718;7.050;2022-11-03T14:33:25;10.20;;;1.80;;
50086;SDS011;35967;50.718;7.050;2022-11-03T14:43:29;12.47;;;2.00;;
50086;SDS011;35967;50.718;7.050;2022-11-03T14:53:35;10.87;;;2.37;;
50086;SDS011;35967;50.718;7.050;2022-11-03T15:03:39;5.60;;;1.50;;
50086;SDS011;35967;50.718;7.050;2022-11-03T15:13:43;9.67;;;2.03;;
50086;SDS011;35967;50.718;7.050;2022-11-03T15:23:51;7.53;;;1.83;;
50086;SDS011;35967;50.718;7.050;2022-11-03T15:34:14;7.43;;;1.83;;
50086;SDS011;35967;50.718;7.050;2022-11-03T15:44:19;7.00;;;1.77;;
50086;SDS011;35967;50.718;7.050;2022-11-03T15:54:22;5.60;;;1.83;;
50086;SDS011;35967;50.718;7.050;2022-11-03T16:04:26;6.40;;;1.70;;
50086;SDS011;35967;50.718;7.050;2022-11-03T16:14:29;4.27;;;1.60;;
50086;SDS011;35967;50.718;7.050;2022-11-03T16:24:33;4.83;;;1.47;;
50086;SDS011;35967;50.718;7.050;2022-11-03T16:34:37;9.67;;;2.10;;
50086;SDS011;35967;50.718;7.050;2022-11-03T16:44:41;7.47;;;1.70;;
50086;SDS011;35967;50.718;7.050;2022-11-03T16:54:44;8.40;;;1.90;;
50086;SDS011;35967;50.718;7.050;2022-11-03T17:04:48;6.13;;;1.90;;
50086;SDS011;35967;50.718;7.050;2022-11-03T17:14:51;8.30;;;2.50;;
50086;SDS011;35967;50.718;7.050;2022-11-03T17:24:58;9.87;;;2.10;;
50086;SDS011;35967;50.718;7.050;2022-11-03T17:35:02;7.63;;;1.63;;
50086;SDS011;35967;50.718;7.050;2022-11-03T17:45:10;5.20;;;1.77;;
50086;SDS011;35967;50.718;7.050;2022-11-03T17:55:14;5.83;;;2.00;;
50086;SDS011;35967;50.718;7.050;2022-11-03T18:05:22;5.27;;;1.80;;
50086;SDS011;35967;50.718;7.050;2022-11-03T18:15:27;8.17;;;2.40;;
50086;SDS011;35967;50.718;7.050;2022-11-03T18:25:33;8.57;;;1.97;;
50086;SDS011;35967;50.718;7.050;2022-11-03T18:35:36;7.70;;;1.70;;
50086;SDS011;35967;50.718;7.050;2022-11-03T18:45:41;4.40;;;1.70;;
50086;SDS011;35967;50.718;7.050;2022-11-03T18:55:45;5.97;;;2.07;;
50086;SDS011;35967;50.718;7.050;2022-11-03T19:05:50;4.93;;;2.10;;
50086;SDS011;35967;50.718;7.050;2022-11-03T19:15:54;26.93;;;6.53;;
50086;SDS011;35967;50.718;7.050;2022-11-03T19:26:00;8.67;;;3.53;;
50086;SDS011;35967;50.718;7.050;2022-11-03T19:36:04;6.50;;;3.40;;
50086;SDS011;35967;50.718;7.050;2022-11-03T19:46:09;12.10;;;3.37;;
50086;SDS011;35967;50.718;7.050;2022-11-03T19:56:19;9.70;;;4.30;;
50086;SDS011;35967;50.718;7.050;2022-11-03T20:06:24;7.80;;;3.40;;
50086;SDS011;35967;50.718;7.050;2022-11-03T20:16:27;6.77;;;3.93;;
50086;SDS011;35967;50.718;7.050;2022-11-03T20:26:32;7.73;;;2.57;;
50086;SDS011;35967;50.718;7.050;2022-11-03T20:36:36;9.57;;;3.50;;
50086;SDS011;35967;50.718;7.050;2022-11-03T20:46:40;11.87;;;3.73;;
50086;SDS011;35967;50.718;7.050;2022-11-03T20:56:44;11.10;;;3.63;;
50086;SDS011;35967;50.718;7.050;2022-11-03T21:06:49;5.57;;;2.53;;
50086;SDS011;35967;50.718;7.050;2022-11-03T21:16:52;4.73;;;1.20;;
50086;SDS011;35967;50.718;7.050;2022-11-03T21:27:58;1.90;;;0.80;;
50086;SDS011;35967;50.718;7.050;2022-11-03T21:38:01;2.43;;;0.70;;
50086;SDS011;35967;50.718;7.050;2022-11-03T21:48:08;2.10;;;0.70;;
50086;SDS011;35967;50.718;7.050;2022-11-03T21:58:30;1.33;;;0.53;;
50086;SDS011;35967;50.718;7.050;2022-11-03T22:08:35;0.90;;;0.50;;
50086;SDS011;35967;50.718;7.050;2022-11-03T22:18:39;1.33;;;0.57;;
50086;SDS011;35967;50.718;7.050;2022-11-03T22:28:44;1.60;;;0.40;;
50086;SDS011;35967;50.718;7.050;2022-11-03T22:39:07;1.33;;;0.40;;
50086;SDS011;35967;50.718;7.050;2022-11-03T22:49:29;1.00;;;0.50;;
50086;SDS011;35967;50.718;7.050;2022-11-03T22:59:32;3.13;;;0.60;;
50086;SDS011;35967;50.718;7.050;2022-11-03T23:09:37;2.87;;;0.30;;
50086;SDS011;35967;50.718;7.050;2022-11-03T23:19:40;0.40;;;0.20;;
50086;SDS011;35967;50.718;7.050;2022-11-03T23:30:02;0.93;;;0.30;;
50086;SDS011;35967;50.718;7.050;2022-11-03T23:40:07;1.40;;;0.40;;
50086;SDS011;35967;50.718;7.050;2022-11-03T23:50:12;0.63;;;0.23;;
